Time;durP1;ratioP1;P1;durP2;ratioP2;P2;SDS_P1;SDS_P2;PMS_P1;PMS_P2;Temp;Humidity;BMP_temperature;BMP_pressure;BME280_temperature;BME280_humidity;BME280_pressure;Samples;Min_cycle;Max_cycle;Signal;HPM_P1;HPM_P2
2023/10/12 00:00:41;;;;;;;20.40;9.60;;;;;;;17.02;100.00;101107.41;5052972;28;20039;-73
2023/10/12 00:03:07;;;;;;;21.73;8.75;;;;;;;17.05;100.00;101106.13;5049056;28;20749;-73
2023/10/12 00:05:34;;;;;;;17.48;8.90;;;;;;;17.03;100.00;101111.75;5051714;28;20096;-73
2023/10/12 00:08:08;;;;;;;22.20;10.40;;;;;;;17.02;100.00;101117.38;5055736;28;20041;-73
2023/10/12 00:10:44;;;;;;;18.20;10.07;;;;;;;16.97;100.00;101118.06;5070826;28;20033;-73
2023/10/12 00:13:13;;;;;;;20.23;8.93;;;;;;;16.98;100.00;101113.50;5070657;28;20028;-73
2023/10/12 00:15:45;;;;;;;18.58;8.25;;;;;;;16.97;100.00;101119.94;5036531;28;20028;-73
2023/10/12 00:18:13;;;;;;;17.27;8.85;;;;;;;16.92;100.00;101117.13;5070734;28;20036;-73
2023/10/12 00:20:39;;;;;;;19.35;9.00;;;;;;;16.90;100.00;101122.75;5052293;28;20013;-73
2023/10/12 00:23:15;;;;;;;20.80;9.98;;;;;;;16.83;100.00;101122.03;5033660;28;20048;-73
2023/10/12 00:25:54;;;;;;;19.92;9.63;;;;;;;16.87;100.00;101133.97;5051347;28;20502;-73
2023/10/12 00:28:22;;;;;;;20.95;9.90;;;;;;;16.82;100.00;101128.44;5065841;28;20445;-73
2023/10/12 00:30:57;;;;;;;20.95;9.20;;;;;;;16.80;100.00;101126.00;5055116;28;20021;-73
2023/10/12 00:33:23;;;;;;;22.60;10.75;;;;;;;16.77;100.00;101129.16;5050576;28;20029;-73
2023/10/12 00:36:01;;;;;;;18.67;9.43;;;;;;;16.74;100.00;101129.59;5052367;28;20040;-73
2023/10/12 00:38:29;;;;;;;21.40;10.60;;;;;;;16.72;100.00;101142.47;5064359;28;20032;-73
2023/10/12 00:41:04;;;;;;;22.40;11.38;;;;;;;16.68;100.00;101140.47;5070126;28;20089;-73
2023/10/12 00:43:38;;;;;;;21.83;8.27;;;;;;;16.65;100.00;101141.75;5069904;28;20051;-73
2023/10/12 00:46:16;;;;;;;18.63;10.30;;;;;;;16.63;100.00;101143.84;5068011;28;20119;-73
2023/10/12 00:48:47;;;;;;;23.65;11.45;;;;;;;16.59;100.00;101156.13;5055822;28;20496;-73
2023/10/12 00:51:16;;;;;;;21.25;11.02;;;;;;;16.54;100.00;101154.13;5050798;28;20028;-73
2023/10/12 00:53:55;;;;;;;22.92;12.20;;;;;;;16.54;100.00;101167.59;5051058;28;20499;-73
2023/10/12 00:56:21;;;;;;;23.05;12.95;;;;;;;16.54;100.00;101169.47;5034786;28;20488;-73
2023/10/12 00:58:47;;;;;;;20.45;11.45;;;;;;;16.50;100.00;101162.88;5032863;28;20029;-73
2023/10/12 01:01:14;;;;;;;24.92;12.10;;;;;;;16.49;100.00;101159.38;5050820;28;20079;-73
2023/10/12 01:03:39;;;;;;;20.50;12.23;;;;;;;16.44;100.00;101160.03;5033204;28;20036;-73
2023/10/12 01:08:42;;;;;;;21.55;12.27;;;;;;;16.42;100.00;101170.22;5060588;28;20229;-73
2023/10/12 01:11:18;;;;;;;23.30;11.82;;;;;;;16.36;100.00;101164.94;5066203;28;20039;-73
2023/10/12 01:13:49;;;;;;;27.00;12.40;;;;;;;16.30;100.00;101165.84;5052606;28;20357;-73
2023/10/12 01:16:23;;;;;;;25.63;13.15;;;;;;;16.32;100.00;101166.44;5069740;28;20028;-73
2023/10/12 01:18:55;;;;;;;23.00;12.85;;;;;;;16.24;100.00;101154.09;5069537;28;20028;-73
2023/10/12 01:21:21;;;;;;;26.75;11.88;;;;;;;16.27;100.00;101159.06;5069450;28;20049;-73
2023/10/12 01:23:51;;;;;;;29.30;13.45;;;;;;;16.23;100.00;101162.41;5069381;28;20032;-73
2023/10/12 01:26:18;;;;;;;25.15;14.05;;;;;;;16.23;100.00;101173.19;5069314;28;20037;-73
2023/10/12 01:28:49;;;;;;;25.10;13.95;;;;;;;16.17;100.00;101162.28;5069252;28;20433;-73
2023/10/12 01:31:18;;;;;;;28.98;13.77;;;;;;;16.18;100.00;101179.22;5058061;28;20070;-73
2023/10/12 01:33:44;;;;;;;25.55;13.57;;;;;;;16.18;100.00;101187.31;5058021;28;20074;-73
2023/10/12 01:36:10;;;;;;;26.92;14.15;;;;;;;16.15;100.00;101177.81;5015695;28;20032;-73
2023/10/12 01:38:38;;;;;;;25.48;12.55;;;;;;;16.12;100.00;101166.69;5054740;28;20032;-73
2023/10/12 01:41:09;;;;;;;28.40;13.20;;;;;;;16.12;100.00;101158.63;5037015;28;20090;-73
2023/10/12 01:43:35;;;;;;;25.83;13.27;;;;;;;16.11;100.00;101159.66;5058000;28;20115;-73
2023/10/12 01:46:08;;;;;;;25.90;14.93;;;;;;;16.12;100.00;101145.16;5068714;28;20036;-72
2023/10/12 01:48:34;;;;;;;23.38;13.73;;;;;;;16.12;100.00;101124.47;5068901;28;20036;-72
2023/10/12 01:51:10;;;;;;;25.35;14.60;;;;;;;16.10;100.00;101114.97;5063419;28;20048;-72
2023/10/12 01:53:37;;;;;;;28.40;13.52;;;;;;;16.09;100.00;101121.41;5061855;28;20070;-72
2023/10/12 01:56:09;;;;;;;24.63;13.35;;;;;;;16.08;100.00;101123.25;5059795;28;20020;-72
2023/10/12 01:58:35;;;;;;;;;;;;;;;16.07;100.00;101137.75;5041497;28;20560;-72
2023/10/12 02:01:07;;;;;;;29.20;13.32;;;;;;;16.06;100.00;101141.50;5055683;28;20019;-72
2023/10/12 02:03:42;;;;;;;24.67;13.48;;;;;;;15.99;100.00;101130.00;5056338;28;20035;-72
2023/10/12 02:06:14;;;;;;;25.58;14.15;;;;;;;15.85;100.00;101109.69;5051947;28;20120;-72
2023/10/12 02:08:40;;;;;;;24.95;14.27;;;;;;;16.00;100.00;101140.53;5055299;28;20079;-72
2023/10/12 02:13:41;;;;;;;28.23;14.30;;;;;;;15.93;100.00;101128.22;5062615;28;20044;-72
2023/10/12 02:16:07;;;;;;;24.80;13.65;;;;;;;15.97;100.00;101137.47;5050104;28;20025;-72
2023/10/12 02:18:34;;;;;;;28.77;14.77;;;;;;;15.96;100.00;101146.59;5056992;28;20036;-72
2023/10/12 02:21:09;;;;;;;26.48;13.07;;;;;;;15.94;100.00;101146.00;5037394;28;20535;-72
2023/10/12 02:23:53;;;;;;;25.00;14.57;;;;;;;15.85;100.00;101123.97;5058800;28;20429;-72
2023/10/12 02:26:36;;;;;;;27.17;15.23;;;;;;;15.93;100.00;101126.34;5061317;28;20029;-72
2023/10/12 02:31:54;;;;;;;27.52;16.35;;;;;;;15.91;100.00;101154.53;5061906;28;21025;-72
2023/10/12 02:34:20;;;;;;;27.75;14.52;;;;;;;15.88;100.00;101166.56;5062315;28;20391;-72
2023/10/12 02:39:38;;;;;;;27.15;13.95;;;;;;;15.89;100.00;101148.53;5056586;28;20055;-72
2023/10/12 02:42:51;;;;;;;25.15;13.40;;;;;;;15.85;100.00;101139.25;5058140;28;20472;-72
2023/10/12 02:47:23;;;;;;;31.63;13.88;;;;;;;15.67;100.00;101081.72;5056916;28;20048;-72
2023/10/12 02:50:00;;;;;;;28.33;15.52;;;;;;;15.69;100.00;101074.31;5053541;28;20029;-72
2023/10/12 02:52:30;;;;;;;27.38;15.65;;;;;;;15.68;100.00;101104.06;5055049;28;20032;-72
2023/10/12 02:54:56;;;;;;;27.65;14.88;;;;;;;15.67;100.00;101103.25;5057349;28;20020;-72
2023/10/12 02:57:24;;;;;;;23.77;15.23;;;;;;;15.58;100.00;101091.13;5064348;28;20063;-72
2023/10/12 03:00:35;;;;;;;28.20;16.08;;;;;;;15.74;100.00;101128.19;5063034;28;20039;-72
2023/10/12 03:02:45;;;;;;;28.73;15.48;;;;;;;15.73;100.00;101123.06;5055379;28;20033;-72
2023/10/12 03:05:17;;;;;;;25.33;17.52;;;;;;;15.68;100.00;101110.25;5064955;28;20103;-72
2023/10/12 03:07:44;;;;;;;26.35;14.98;;;;;;;15.69;100.00;101122.69;5065524;28;20040;-72
2023/10/12 03:10:54;;;;;;;30.02;15.48;;;;;;;15.68;100.00;101106.75;5059420;28;20037;-72
2023/10/12 03:13:04;;;;;;;25.30;14.32;;;;;;;15.62;100.00;101096.91;5061743;28;20045;-72
2023/10/12 03:15:42;;;;;;;29.38;16.15;;;;;;;15.64;100.00;101087.56;5049916;28;20073;-72
2023/10/12 03:18:11;;;;;;;26.63;16.13;;;;;;;15.63;100.00;101088.59;5063422;28;20025;-72
2023/10/12 03:20:38;;;;;;;26.55;15.20;;;;;;;15.64;100.00;101092.09;5063106;28;20033;-72
2023/10/12 03:23:13;;;;;;;26.58;17.33;;;;;;;15.61;100.00;101095.25;5066866;28;20020;-72
2023/10/12 03:25:46;;;;;;;23.75;13.95;;;;;;;15.47;100.00;101079.25;5061427;28;20122;-72
2023/10/12 03:28:30;;;;;;;27.48;13.88;;;;;;;15.56;100.00;101106.66;5060288;28;20028;-72
2023/10/12 03:33:53;;;;;;;28.67;14.82;;;;;;;15.52;100.00;101111.66;5018527;28;20064;-72
2023/10/12 03:36:23;;;;;;;24.90;13.32;;;;;;;15.51;100.00;101120.78;5058112;28;20029;-72
2023/10/12 03:52:27;;;;;;;28.02;13.20;;;;;;;15.33;100.00;101105.47;5065516;28;20793;-72
2023/10/12 04:02:39;;;;;;;23.88;14.13;;;;;;;15.37;100.00;101139.94;5064195;28;20043;-72
2023/10/12 04:05:21;;;;;;;27.58;11.90;;;;;;;15.36;100.00;101132.94;5058116;28;20053;-72
2023/10/12 04:08:39;;;;;;;22.67;11.93;;;;;;;15.36;100.00;101135.63;5065082;28;20452;-72
2023/10/12 04:19:02;;;;;;;21.73;12.32;;;;;;;15.33;100.00;101163.75;5061845;28;20040;-72
2023/10/12 04:21:33;;;;;;;22.08;11.55;;;;;;;15.28;100.00;101164.41;5057759;28;20037;-72
2023/10/12 04:29:07;;;;;;;21.63;12.27;;;;;;;15.12;100.00;101130.06;5057489;28;20387;-72
2023/10/12 04:31:34;;;;;;;23.98;11.75;;;;;;;15.27;100.00;101146.66;5030232;28;20479;-72
2023/10/12 04:36:45;;;;;;;21.45;11.18;;;;;;;15.27;100.00;101132.38;5061654;28;20037;-72
2023/10/12 04:39:27;;;;;;;19.33;10.10;;;;;;;15.17;100.00;101132.91;5058392;28;20033;-72
2023/10/12 04:42:03;;;;;;;23.13;11.30;;;;;;;15.17;100.00;101132.91;5063574;28;20024;-72
2023/10/12 04:47:06;;;;;;;20.83;10.73;;;;;;;15.17;100.00;101140.13;5044642;28;20044;-72
2023/10/12 04:54:36;;;;;;;21.80;11.55;;;;;;;15.22;100.00;101151.88;5058155;28;20464;-72
2023/10/12 04:59:43;;;;;;;23.83;13.07;;;;;;;15.22;100.00;101151.88;5063603;28;20066;-72
2023/10/12 05:09:51;;;;;;;19.80;10.13;;;;;;;15.24;100.00;101165.06;5064230;28;20467;-72
2023/10/12 05:12:17;;;;;;;20.67;10.85;;;;;;;15.17;100.00;101162.47;5061087;28;20536;-72
2023/10/12 05:14:43;;;;;;;20.50;11.65;;;;;;;15.07;100.00;101154.88;5058895;28;20035;-72
2023/10/12 05:17:08;;;;;;;21.15;11.73;;;;;;;15.24;100.00;101181.19;5062413;28;20016;-72
2023/10/12 05:19:34;;;;;;;21.38;10.95;;;;;;;15.05;100.00;101156.94;5060336;28;20021;-72
2023/10/12 05:22:00;;;;;;;22.52;11.20;;;;;;;15.08;100.00;101163.75;5025597;28;20050;-72
2023/10/12 05:24:25;;;;;;;23.08;12.15;;;;;;;15.22;100.00;101177.91;5045065;28;20135;-72
2023/10/12 05:26:58;;;;;;;21.00;10.40;;;;;;;15.24;100.00;101184.69;5059236;28;20067;-72
2023/10/12 05:32:18;;;;;;;22.55;11.57;;;;;;;15.23;100.00;101191.13;5059810;28;20044;-72
2023/10/12 05:34:46;;;;;;;24.02;11.20;;;;;;;15.11;100.00;101176.75;5059460;28;20039;-72
2023/10/12 05:39:59;;;;;;;21.52;10.43;;;;;;;15.05;100.00;101172.25;5060126;28;20067;-72
2023/10/12 05:42:25;;;;;;;18.83;9.68;;;;;;;15.26;100.00;101193.38;5043963;28;20041;-72
2023/10/12 05:44:52;;;;;;;19.70;10.38;;;;;;;15.10;100.00;101183.16;5060975;28;20028;-72
2023/10/12 05:47:18;;;;;;;23.52;12.43;;;;;;;15.14;100.00;101176.31;5042192;28;20021;-72
2023/10/12 05:49:50;;;;;;;21.67;10.90;;;;;;;15.27;100.00;101208.47;5042522;28;20029;-72
2023/10/12 05:52:16;;;;;;;23.00;10.52;;;;;;;15.12;100.00;101178.41;5060193;28;20050;-72
2023/10/12 05:54:43;;;;;;;23.23;11.48;;;;;;;15.21;100.00;101195.88;5059423;28;20029;-72
2023/10/12 05:57:19;;;;;;;23.77;11.52;;;;;;;15.24;100.00;101213.44;5058144;28;20041;-72
2023/10/12 05:59:47;;;;;;;19.48;9.82;;;;;;;15.24;100.00;101219.63;5058802;28;20423;-72
2023/10/12 06:02:14;;;;;;;20.65;9.80;;;;;;;15.22;100.00;101216.38;5058185;28;20021;-72
2023/10/12 06:04:41;;;;;;;21.20;11.02;;;;;;;15.27;100.00;101229.13;5061562;28;20028;-72
2023/10/12 06:07:06;;;;;;;19.88;11.38;;;;;;;15.28;100.00;101230.78;5058418;28;20025;-72
2023/10/12 06:09:38;;;;;;;20.35;9.85;;;;;;;15.29;100.00;101227.84;5040088;28;20021;-72
2023/10/12 06:12:09;;;;;;;21.98;11.32;;;;;;;15.29;100.00;101233.22;5061664;28;20037;-72
2023/10/12 06:14:36;;;;;;;22.38;10.43;;;;;;;15.24;100.00;101233.06;5059973;28;20458;-72
2023/10/12 06:17:03;;;;;;;20.10;10.10;;;;;;;15.15;100.00;101210.22;5061610;28;20048;-72
2023/10/12 06:19:34;;;;;;;23.00;10.48;;;;;;;15.26;100.00;101232.84;5061181;28;20491;-72
2023/10/12 06:22:00;;;;;;;18.77;10.23;;;;;;;15.26;100.00;101238.25;5039286;28;20078;-72
2023/10/12 06:24:35;;;;;;;20.20;9.40;;;;;;;15.26;100.00;101239.06;5040972;28;20275;-72
2023/10/12 06:29:54;;;;;;;19.60;10.13;;;;;;;15.23;100.00;101242.19;5061969;28;20503;-72
2023/10/12 06:32:32;;;;;;;20.98;10.20;;;;;;;15.23;100.00;101241.38;5042986;28;20028;-72
2023/10/12 06:41:00;;;;;;;21.83;11.18;;;;;;;15.20;100.00;101241.81;5053778;28;20075;-72
2023/10/12 06:45:55;;;;;;;24.52;10.10;;;;;;;15.20;100.00;101239.94;5058210;28;20056;-72
2023/10/12 06:51:11;;;;;;;19.13;9.77;;;;;;;15.16;100.00;101249.47;5058710;28;20052;-72
2023/10/12 06:53:38;;;;;;;20.33;9.60;;;;;;;15.10;100.00;101240.41;5057776;28;20106;-72
2023/10/12 06:56:28;;;;;;;21.92;9.45;;;;;;;15.17;100.00;101261.88;5057371;28;20052;-72
2023/10/12 06:59:35;;;;;;;18.52;8.52;;;;;;;15.04;100.00;101237.78;5059155;28;20060;-72
2023/10/12 07:04:15;;;;;;;20.30;10.75;;;;;;;15.12;100.00;101246.38;5059134;28;20170;-72
2023/10/12 07:06:56;;;;;;;20.60;9.32;;;;;;;15.08;100.00;101241.66;5060495;28;20037;-72
2023/10/12 07:09:40;;;;;;;20.37;9.80;;;;;;;15.10;100.00;101244.97;5061032;28;20054;-72
2023/10/12 07:12:07;;;;;;;21.00;10.13;;;;;;;15.24;100.00;101264.50;5059580;28;20025;-72
2023/10/12 07:14:37;;;;;;;20.33;9.02;;;;;;;15.07;100.00;101254.28;5060993;28;20040;-72
2023/10/12 07:17:04;;;;;;;19.58;9.13;;;;;;;15.12;100.00;101265.19;5060834;28;20131;-72
2023/10/12 07:19:30;;;;;;;19.30;9.23;;;;;;;15.23;100.00;101284.34;5059736;28;20048;-72
2023/10/12 07:22:01;;;;;;;20.35;10.13;;;;;;;15.20;100.00;101277.56;5055915;28;20040;-73
2023/10/12 07:24:26;;;;;;;23.50;10.32;;;;;;;15.16;100.00;101276.31;5056821;28;20051;-73
2023/10/12 07:26:51;;;;;;;17.75;9.85;;;;;;;15.17;100.00;101279.81;5060925;28;20032;-73
2023/10/12 07:29:35;;;;;;;21.20;9.65;;;;;;;15.22;100.00;101290.75;5067409;28;20479;-72
2023/10/12 07:34:52;;;;;;;22.02;10.48;;;;;;;15.19;100.00;101292.00;5056421;28;20055;-73
2023/10/12 07:37:18;;;;;;;18.95;10.00;;;;;;;15.24;100.00;101304.81;5046006;28;20033;-73
2023/10/12 07:39:44;;;;;;;23.40;9.75;;;;;;;15.23;100.00;101309.34;5063591;28;20036;-75
2023/10/12 07:42:14;;;;;;;20.92;10.52;;;;;;;15.24;100.00;101304.81;5059762;28;20024;-74
2023/10/12 07:44:42;;;;;;;19.05;8.68;;;;;;;15.23;100.00;101303.16;5056986;28;20032;-72
2023/10/12 07:47:18;;;;;;;17.38;9.48;;;;;;;15.24;100.00;101300.25;5062157;28;20115;-75
2023/10/12 07:49:57;;;;;;;21.83;10.10;;;;;;;15.26;100.00;101298.16;5056877;28;20032;-74
2023/10/12 07:52:32;;;;;;;18.35;9.20;;;;;;;15.25;100.00;101295.72;5045891;28;20032;-76
2023/10/12 07:54:58;;;;;;;17.63;8.10;;;;;;;15.28;100.00;101308.72;5066582;28;20415;-75
2023/10/12 07:57:31;;;;;;;20.38;9.27;;;;;;;15.23;100.00;101298.59;5064725;28;20064;-76
2023/10/12 08:07:59;;;;;;;21.42;10.18;;;;;;;15.33;100.00;101315.09;5033004;28;20905;-72
2023/10/12 08:10:48;;;;;;;22.13;9.50;;;;;;;15.33;100.00;101311.59;5062012;28;20029;-77
2023/10/12 08:16:04;;;;;;;20.90;9.55;;;;;;;15.30;100.00;101301.25;5017515;28;20787;-71
2023/10/12 08:21:31;;;;;;;17.95;9.57;;;;;;;15.36;100.00;101307.63;5049124;28;20091;-71
2023/10/12 08:26:35;;;;;;;20.27;9.52;;;;;;;15.34;100.00;101305.97;5049557;28;20040;-71
2023/10/12 08:39:51;;;;;;;21.58;9.88;;;;;;;15.37;100.00;101317.34;5067496;28;20472;-72
2023/10/12 08:44:59;;;;;;;19.40;9.60;;;;;;;15.38;100.00;101319.81;5067356;28;20052;-72
2023/10/12 08:52:33;;;;;;;21.48;11.93;;;;;;;15.47;100.00;101333.81;5067226;28;20052;-72
2023/10/12 08:55:12;;;;;;;21.75;9.25;;;;;;;15.50;100.00;101333.38;5049036;28;20549;-72
2023/10/12 08:57:56;;;;;;;18.98;9.85;;;;;;;15.50;100.00;101328.81;5066990;28;20041;-72
2023/10/12 09:03:05;;;;;;;20.35;10.55;;;;;;;15.50;100.00;101342.25;5047176;28;20048;-72
2023/10/12 09:05:32;;;;;;;22.42;10.40;;;;;;;15.51;100.00;101335.84;5047427;28;20496;-72
2023/10/12 09:10:54;;;;;;;27.75;10.55;;;;;;;15.57;100.00;101326.09;5047758;28;20036;-72
2023/10/12 09:13:21;;;;;;;19.90;9.30;;;;;;;15.59;100.00;101307.88;5047108;28;20041;-72
2023/10/12 09:15:54;;;;;;;20.50;10.98;;;;;;;15.57;100.00;101313.47;5047583;28;20055;-72
2023/10/12 09:18:21;;;;;;;23.25;9.63;;;;;;;15.63;100.00;101313.63;5047238;28;20036;-73
2023/10/12 09:36:27;;;;;;;21.15;10.77;;;;;;;15.83;100.00;101333.16;5059727;28;20424;-75
2023/10/12 09:38:55;;;;;;;24.35;11.65;;;;;;;15.85;100.00;101344.53;5068828;28;20029;-75
2023/10/12 09:41:27;;;;;;;22.88;11.75;;;;;;;15.87;100.00;101337.03;5068882;28;20151;-75
2023/10/12 09:43:58;;;;;;;23.92;10.57;;;;;;;15.91;100.00;101335.56;5069040;28;20024;-75
2023/10/12 09:46:27;;;;;;;21.48;10.65;;;;;;;15.93;100.00;101324.59;5068774;28;20140;-74
2023/10/12 09:49:06;;;;;;;20.08;10.68;;;;;;;15.95;100.00;101314.41;5068932;28;20032;-74
2023/10/12 09:51:36;;;;;;;27.00;10.90;;;;;;;16.00;100.00;101315.41;5066473;28;20040;-75
2023/10/12 09:54:15;;;;;;;25.73;13.05;;;;;;;16.03;100.00;101302.56;5050467;28;20535;-75
2023/10/12 09:56:46;;;;;;;21.05;9.65;;;;;;;16.11;100.00;101315.72;5068345;28;20483;-75
2023/10/12 09:59:18;;;;;;;19.73;10.93;;;;;;;16.14;100.00;101307.22;5058895;28;20108;-74
2023/10/12 10:07:14;;;;;;;21.33;10.40;;;;;;;16.31;100.00;101308.28;5048469;28;20558;-75
2023/10/12 10:09:41;;;;;;;21.73;10.18;;;;;;;16.31;100.00;101291.31;5049320;28;20681;-75
2023/10/12 10:12:07;;;;;;;19.63;9.63;;;;;;;16.28;100.00;101294.44;5049375;28;20186;-75
2023/10/12 10:14:36;;;;;;;26.48;10.95;;;;;;;16.33;100.00;101303.50;5031651;28;20029;-75
2023/10/12 10:17:02;;;;;;;20.02;9.80;;;;;;;16.31;100.00;101304.75;5063048;28;20036;-75
2023/10/12 10:19:30;;;;;;;18.27;9.50;;;;;;;16.29;100.00;101306.84;5058277;28;20032;-74
2023/10/12 10:22:05;;;;;;;19.35;9.35;;;;;;;16.25;100.00;101295.72;5068388;28;20028;-75
2023/10/12 10:24:58;;;;;;;19.65;8.75;;;;;;;16.27;100.00;101300.88;5032229;28;20029;-75
2023/10/12 10:27:34;;;;;;;19.15;8.82;;;;;;;16.20;100.00;101293.69;5057037;28;20040;-75
2023/10/12 10:30:18;;;;;;;20.80;10.10;;;;;;;16.21;100.00;101294.50;5068202;28;20032;-75
2023/10/12 10:32:45;;;;;;;20.40;10.60;;;;;;;16.14;100.00;101289.22;5068123;28;20033;-75
2023/10/12 10:35:18;;;;;;;19.50;9.60;;;;;;;16.18;100.00;101290.38;5068156;28;20094;-75
2023/10/12 10:37:47;;;;;;;21.83;9.63;;;;;;;16.16;100.00;101283.59;5054249;28;20025;-76
2023/10/12 10:40:17;;;;;;;20.33;10.45;;;;;;;16.23;100.00;101289.72;5048535;28;20108;-74
2023/10/12 10:42:57;;;;;;;17.17;9.15;;;;;;;16.22;100.00;101280.03;5052732;28;20032;-74
2023/10/12 10:45:24;;;;;;;19.27;10.95;;;;;;;16.26;100.00;101280.38;5044309;28;20086;-74
2023/10/12 10:47:50;;;;;;;20.58;10.35;;;;;;;16.17;100.00;101266.41;5054008;28;20032;-74
2023/10/12 10:50:15;;;;;;;18.40;8.80;;;;;;;16.25;100.00;101274.19;5061294;28;20039;-76
2023/10/12 10:52:44;;;;;;;18.60;8.98;;;;;;;16.28;100.00;101272.91;5056300;28;20037;-76
2023/10/12 10:55:11;;;;;;;20.05;9.95;;;;;;;16.31;100.00;101281.34;5040367;28;20037;-75
2023/10/12 10:57:39;;;;;;;24.52;12.13;;;;;;;16.28;100.00;101268.34;5065568;28;20041;-75
2023/10/12 11:00:16;;;;;;;19.35;9.95;;;;;;;16.34;100.00;101272.81;5031980;28;20056;-76
2023/10/12 11:02:41;;;;;;;19.23;9.32;;;;;;;16.40;100.00;101268.41;5041357;28;20034;-76
2023/10/12 11:05:10;;;;;;;27.27;11.70;;;;;;;16.45;100.00;101268.56;5028934;28;20032;-74
2023/10/12 11:07:37;;;;;;;23.35;12.10;;;;;;;16.51;100.00;101270.38;5030567;28;20556;-74
2023/10/12 11:10:19;;;;;;;19.90;9.88;;;;;;;16.57;100.00;101266.75;5054331;28;20390;-73
2023/10/12 11:12:44;;;;;;;20.88;10.32;;;;;;;16.62;100.00;101266.91;5065236;28;20138;-74
2023/10/12 11:15:11;;;;;;;21.05;10.65;;;;;;;16.65;100.00;101266.44;5065384;28;20048;-76
2023/10/12 11:17:41;;;;;;;23.45;11.27;;;;;;;16.62;100.00;101256.13;5043474;28;20040;-72
2023/10/12 11:20:27;;;;;;;20.98;10.68;;;;;;;16.65;100.00;101262.94;5050592;28;20029;-74
2023/10/12 11:22:57;;;;;;;21.63;11.85;;;;;;;16.62;100.00;101255.31;5054397;28;20124;-76
2023/10/12 11:25:26;;;;;;;19.80;9.48;;;;;;;16.57;100.00;101245.22;5064629;28;20020;-73
2023/10/12 11:27:53;;;;;;;18.17;9.35;;;;;;;16.59;100.00;101250.38;5068728;28;20428;-72
2023/10/12 11:30:34;;;;;;;17.92;9.73;;;;;;;16.64;100.00;101255.91;5051176;28;20032;-74
2023/10/12 11:33:01;;;;;;;18.80;10.00;;;;;;;16.66;100.00;101253.78;5051605;28;20033;-73
2023/10/12 11:35:40;;;;;;;16.30;9.13;;;;;;;16.71;100.00;101255.81;5050273;28;20052;-75
2023/10/12 11:38:17;;;;;;;21.05;9.68;;;;;;;16.67;100.00;101254.66;5053403;28;20054;-77
2023/10/12 11:40:44;;;;;;;17.85;8.82;;;;;;;16.67;100.00;101260.03;5057839;28;20107;-74
2023/10/12 11:43:11;;;;;;;16.45;8.18;;;;;;;16.62;100.00;101255.31;5060171;28;20025;-72
2023/10/12 11:45:53;;;;;;;18.75;8.88;;;;;;;16.64;100.00;101247.84;5066778;28;20036;-72
2023/10/12 11:48:22;;;;;;;;;;;;;;;16.73;100.00;101256.41;5058258;28;20031;-72
2023/10/12 11:50:51;;;;;;;17.40;8.90;;;;;;;16.69;100.00;101242.59;5045793;28;19909;-73
2023/10/12 11:53:17;;;;;;;18.77;9.52;;;;;;;16.74;100.00;101247.28;5042307;28;20346;-72
2023/10/12 11:55:49;;;;;;;18.15;8.82;;;;;;;16.74;100.00;101247.28;5041561;28;20035;-72
2023/10/12 11:58:19;;;;;;;;;;;;;;;16.81;100.00;101243.47;5043665;28;20044;-72
2023/10/12 12:00:48;;;;;;;20.70;9.65;;;;;;;16.78;100.00;101232.34;5023983;28;20420;-73
2023/10/12 12:03:14;;;;;;;23.02;9.23;;;;;;;16.77;100.00;101234.22;5061776;28;20482;-76
2023/10/12 12:05:41;;;;;;;19.88;9.65;;;;;;;16.77;100.00;101236.06;5031837;28;20056;-74
2023/10/12 12:08:15;;;;;;;18.63;8.25;;;;;;;16.70;100.00;101236.16;5058417;28;20034;-75
2023/10/12 12:13:09;;;;;;;17.38;7.63;;;;;;;16.72;100.00;101231.34;5063493;28;20037;-74
2023/10/12 12:15:35;;;;;;;17.17;8.75;;;;;;;16.75;100.00;101240.84;5063634;28;20040;-74
2023/10/12 12:18:04;;;;;;;16.23;7.93;;;;;;;16.80;100.00;101243.72;5055454;28;20028;-75
2023/10/12 12:20:38;;;;;;;17.25;8.30;;;;;;;16.82;100.00;101236.22;5060833;28;20036;-74
2023/10/12 12:23:04;;;;;;;17.55;8.27;;;;;;;16.90;100.00;101248.53;5049570;28;20029;-74
2023/10/12 12:25:33;;;;;;;14.38;7.70;;;;;;;16.91;100.00;101232.16;5063623;28;20028;-75
2023/10/12 12:28:01;;;;;;;13.60;7.78;;;;;;;16.98;100.00;101230.19;5037520;28;20033;-75
2023/10/12 12:30:35;;;;;;;17.20;7.68;;;;;;;17.00;100.00;101224.56;5061012;28;20472;-75
2023/10/12 12:33:08;;;;;;;17.50;7.45;;;;;;;17.02;100.00;101223.28;5057537;28;20024;-71
2023/10/12 12:35:38;;;;;;;14.25;7.07;;;;;;;17.06;100.00;101216.38;5066166;28;20104;-77
2023/10/12 12:38:11;;;;;;;14.85;7.35;;;;;;;17.03;100.00;101199.88;5054889;28;20125;-75
2023/10/12 12:40:40;;;;;;;15.27;7.43;;;;;;;17.00;100.00;101198.47;5060441;28;20152;-72
2023/10/12 12:43:08;;;;;;;14.25;7.85;;;;;;;16.97;100.00;101201.59;5059003;28;20188;-74
2023/10/12 12:45:35;;;;;;;17.92;7.32;;;;;;;16.93;100.00;101202.31;5053341;28;20037;-73
2023/10/12 12:48:01;;;;;;;13.18;7.18;;;;;;;16.91;100.00;101207.91;5048810;28;20064;-75
2023/10/12 12:50:28;;;;;;;14.55;7.03;;;;;;;16.91;100.00;101212.47;5048998;28;20052;-74
2023/10/12 12:52:54;;;;;;;15.35;7.15;;;;;;;16.88;100.00;101218.34;5048880;28;21005;-73
2023/10/12 12:55:22;;;;;;;15.30;6.82;;;;;;;16.81;100.00;101200.38;5057124;28;20543;-76
2023/10/12 12:57:47;;;;;;;18.08;7.82;;;;;;;16.83;100.00;101206.34;5067328;28;20555;-72
2023/10/12 13:00:19;;;;;;;15.05;7.13;;;;;;;16.82;100.00;101206.56;5060905;28;20115;-75
2023/10/12 13:02:46;;;;;;;;;;;;;;;16.91;100.00;101209.78;5065129;28;20028;-74
2023/10/12 13:05:11;;;;;;;16.05;7.57;;;;;;;16.82;100.00;101195.81;5045595;28;20525;-74
2023/10/12 13:07:37;;;;;;;17.42;7.88;;;;;;;16.81;100.00;101199.56;5024083;28;20140;-76
2023/10/12 13:10:02;;;;;;;17.05;8.20;;;;;;;16.78;100.00;101205.41;5066265;28;20129;-77
2023/10/12 13:12:31;;;;;;;17.02;7.97;;;;;;;16.76;100.00;101197.50;5047459;28;20029;-73
2023/10/12 13:15:00;;;;;;;15.40;7.57;;;;;;;16.76;100.00;101210.16;5059585;28;20103;-73
2023/10/12 13:17:32;;;;;;;15.13;7.95;;;;;;;16.80;100.00;101206.00;5054009;28;20025;-72
2023/10/12 13:20:00;;;;;;;;;;;;;;;16.92;100.00;101208.72;5015117;28;20111;-74
2023/10/12 13:22:26;;;;;;;16.15;7.25;;;;;;;16.92;100.00;101204.16;5048519;28;20299;-73
2023/10/12 13:24:58;;;;;;;19.77;9.18;;;;;;;16.90;100.00;101195.50;5061526;28;20029;-73
2023/10/12 13:27:32;;;;;;;17.73;8.70;;;;;;;16.91;100.00;101207.91;5054803;28;20069;-74
2023/10/12 13:30:00;;;;;;;15.93;8.40;;;;;;;16.89;100.00;101201.91;5048321;28;20029;-76
2023/10/12 13:32:26;;;;;;;17.90;8.80;;;;;;;16.86;100.00;101200.50;5051423;28;20056;-75
2023/10/12 13:34:57;;;;;;;18.67;9.50;;;;;;;16.82;100.00;101207.41;5047904;28;20056;-72
2023/10/12 13:37:25;;;;;;;15.03;8.17;;;;;;;16.71;100.00;101192.00;5065391;28;20029;-71
2023/10/12 13:39:51;;;;;;;15.13;8.85;;;;;;;16.75;100.00;101203.97;5043619;28;20025;-75
2023/10/12 13:42:16;;;;;;;17.38;8.20;;;;;;;16.64;100.00;101192.09;5047727;28;20036;-75
2023/10/12 13:44:42;;;;;;;16.15;9.10;;;;;;;16.73;100.00;101202.53;5032737;28;20064;-75
2023/10/12 13:47:08;;;;;;;17.00;9.13;;;;;;;16.71;100.00;101194.69;5059699;28;20029;-74
2023/10/12 13:49:37;;;;;;;17.77;9.02;;;;;;;16.72;100.00;101203.59;5039613;28;20083;-75
2023/10/12 13:52:09;;;;;;;20.33;9.25;;;;;;;16.72;100.00;101195.53;5066472;28;20028;-74
2023/10/12 13:54:45;;;;;;;17.83;8.30;;;;;;;16.73;100.00;101187.19;5068133;28;20066;-72
2023/10/12 13:57:14;;;;;;;20.25;8.02;;;;;;;16.76;100.00;101192.13;5068506;28;20052;-73
2023/10/12 13:59:40;;;;;;;20.67;8.93;;;;;;;16.76;100.00;101185.91;5068626;28;20062;-73
2023/10/12 14:02:07;;;;;;;18.35;8.63;;;;;;;16.73;100.00;101184.50;5068583;28;20456;-73